sensor_id;sensor_type;location;lat;lon;timestamp;pressure;altitude;pressure_sealevel;temperature;humidity
54948;BME280;41113;41.882;12.530;2023-06-10T00:02:10;100813.56;;;22.85;78.75
54948;BME280;41113;41.882;12.530;2023-06-10T00:04:35;100813.13;;;22.94;78.69
54948;BME280;41113;41.882;12.530;2023-06-10T00:07:05;100804.25;;;22.99;78.17
54948;BME280;41113;41.882;12.530;2023-06-10T00:09:35;100801.53;;;22.92;78.82
54948;BME280;41113;41.882;12.530;2023-06-10T00:12:02;100799.44;;;22.94;79.04
54948;BME280;41113;41.882;12.530;2023-06-10T00:14:27;100798.81;;;22.86;79.23
54948;BME280;41113;41.882;12.530;2023-06-10T00:16:53;100799.66;;;22.80;81.14
54948;BME280;41113;41.882;12.530;2023-06-10T00:19:18;100795.25;;;22.39;83.82
54948;BME280;41113;41.882;12.530;2023-06-10T00:21:44;100794.63;;;22.44;83.64
54948;BME280;41113;41.882;12.530;2023-06-10T00:24:10;100788.75;;;22.20;85.24
54948;BME280;41113;41.882;12.530;2023-06-10T00:26:38;100782.16;;;22.01;88.21
54948;BME280;41113;41.882;12.530;2023-06-10T00:29:03;100779.84;;;21.98;87.87
54948;BME280;41113;41.882;12.530;2023-06-10T00:31:28;100777.31;;;21.97;90.73
54948;BME280;41113;41.882;12.530;2023-06-10T00:33:55;100774.59;;;21.90;88.83
54948;BME280;41113;41.882;12.530;2023-06-10T00:36:20;100778.16;;;21.84;92.19
54948;BME280;41113;41.882;12.530;2023-06-10T00:38:46;100781.94;;;21.83;91.64
54948;BME280;41113;41.882;12.530;2023-06-10T00:41:11;100783.84;;;21.89;90.21
54948;BME280;41113;41.882;12.530;2023-06-10T00:43:36;100795.84;;;22.01;88.95
54948;BME280;41113;41.882;12.530;2023-06-10T00:46:02;100792.31;;;22.21;87.40
54948;BME280;41113;41.882;12.530;2023-06-10T00:48:27;100787.28;;;22.18;88.58
54948;BME280;41113;41.882;12.530;2023-06-10T00:50:53;100788.66;;;21.87;92.56
54948;BME280;41113;41.882;12.530;2023-06-10T00:53:19;100773.69;;;21.70;95.57
54948;BME280;41113;41.882;12.530;2023-06-10T00:55:46;100768.41;;;21.62;95.32
54948;BME280;41113;41.882;12.530;2023-06-10T00:58:12;100772.00;;;21.69;95.96
54948;BME280;41113;41.882;12.530;2023-06-10T01:00:38;100773.06;;;21.68;96.00
54948;BME280;41113;41.882;12.530;2023-06-10T01:03:03;100774.97;;;21.74;96.05
54948;BME280;41113;41.882;12.530;2023-06-10T01:05:34;100782.09;;;21.68;97.71
54948;BME280;41113;41.882;12.530;2023-06-10T01:10:53;100765.91;;;21.60;97.31
54948;BME280;41113;41.882;12.530;2023-06-10T01:13:22;100766.31;;;21.64;97.33
54948;BME280;41113;41.882;12.530;2023-06-10T01:15:50;100765.06;;;21.66;99.48
54948;BME280;41113;41.882;12.530;2023-06-10T01:18:16;100761.06;;;21.56;98.89
54948;BME280;41113;41.882;12.530;2023-06-10T01:20:43;100756.22;;;21.51;98.76
54948;BME280;41113;41.882;12.530;2023-06-10T01:23:10;100744.19;;;21.46;99.21
54948;BME280;41113;41.882;12.530;2023-06-10T01:25:39;100741.03;;;21.42;98.95
54948;BME280;41113;41.882;12.530;2023-06-10T01:33:18;100750.97;;;21.63;98.22
54948;BME280;41113;41.882;12.530;2023-06-10T01:35:47;100744.03;;;21.67;97.30
54948;BME280;41113;41.882;12.530;2023-06-10T01:38:14;100738.13;;;21.57;99.65
54948;BME280;41113;41.882;12.530;2023-06-10T01:40:40;100738.53;;;21.47;100.00
54948;BME280;41113;41.882;12.530;2023-06-10T01:43:06;100741.44;;;21.46;99.04
54948;BME280;41113;41.882;12.530;2023-06-10T01:45:31;100743.59;;;21.57;98.86
54948;BME280;41113;41.882;12.530;2023-06-10T01:47:56;100749.06;;;21.57;97.43
54948;BME280;41113;41.882;12.530;2023-06-10T01:52:47;100765.97;;;21.93;94.53
54948;BME280;41113;41.882;12.530;2023-06-10T01:55:12;100759.22;;;21.96;95.35
54948;BME280;41113;41.882;12.530;2023-06-10T01:57:38;100757.53;;;21.88;94.79
54948;BME280;41113;41.882;12.530;2023-06-10T02:00:03;100759.41;;;21.74;97.80
54948;BME280;41113;41.882;12.530;2023-06-10T02:02:29;100747.81;;;21.66;98.44
54948;BME280;41113;41.882;12.530;2023-06-10T02:04:54;100749.91;;;21.57;99.56
54948;BME280;41113;41.882;12.530;2023-06-10T02:07:20;100738.06;;;21.37;100.00
54948;BME280;41113;41.882;12.530;2023-06-10T02:09:45;100730.88;;;21.23;100.00
54948;BME280;41113;41.882;12.530;2023-06-10T02:12:11;100730.03;;;21.22;100.00
54948;BME280;41113;41.882;12.530;2023-06-10T02:14:36;100715.94;;;21.19;100.00
54948;BME280;41113;41.882;12.530;2023-06-10T02:17:02;100721.66;;;21.30;100.00
54948;BME280;41113;41.882;12.530;2023-06-10T02:19:27;100719.50;;;21.19;100.00
54948;BME280;41113;41.882;12.530;2023-06-10T02:21:53;100719.00;;;21.02;100.00
54948;BME280;41113;41.882;12.530;2023-06-10T02:24:18;100700.06;;;20.94;100.00
54948;BME280;41113;41.882;12.530;2023-06-10T02:26:44;100709.28;;;20.87;100.00
54948;BME280;41113;41.882;12.530;2023-06-10T02:29:10;100710.56;;;20.91;100.00
54948;BME280;41113;41.882;12.530;2023-06-10T02:31:36;100723.19;;;20.98;100.00
54948;BME280;41113;41.882;12.530;2023-06-10T02:34:02;100728.53;;;21.20;100.00
54948;BME280;41113;41.882;12.530;2023-06-10T02:36:29;100735.13;;;21.38;100.00
54948;BME280;41113;41.882;12.530;2023-06-10T02:38:54;100729.31;;;21.55;98.52
54948;BME280;41113;41.882;12.530;2023-06-10T02:41:19;100723.00;;;21.67;96.96
54948;BME280;41113;41.882;12.530;2023-06-10T02:43:47;100728.06;;;21.77;95.58
54948;BME280;41113;41.882;12.530;2023-06-10T02:48:41;100736.06;;;21.72;94.71
54948;BME280;41113;41.882;12.530;2023-06-10T02:51:08;100733.53;;;21.64;94.93
54948;BME280;41113;41.882;12.530;2023-06-10T02:53:34;100728.06;;;21.70;94.71
54948;BME280;41113;41.882;12.530;2023-06-10T02:55:59;100731.47;;;21.79;93.45
54948;BME280;41113;41.882;12.530;2023-06-10T02:58:24;100721.34;;;21.73;94.77
54948;BME280;41113;41.882;12.530;2023-06-10T03:00:51;100714.97;;;21.39;97.72
54948;BME280;41113;41.882;12.530;2023-06-10T03:03:16;100719.56;;;21.26;100.00
54948;BME280;41113;41.882;12.530;2023-06-10T03:05:41;100717.81;;;21.18;100.00
54948;BME280;41113;41.882;12.530;2023-06-10T03:08:07;100710.59;;;21.04;100.00
54948;BME280;41113;41.882;12.530;2023-06-10T03:10:32;100721.47;;;20.84;100.00
54948;BME280;41113;41.882;12.530;2023-06-10T03:12:58;100716.56;;;20.73;100.00
54948;BME280;41113;41.882;12.530;2023-06-10T03:15:23;100712.53;;;20.69;100.00
54948;BME280;41113;41.882;12.530;2023-06-10T03:17:50;100709.63;;;20.70;100.00
54948;BME280;41113;41.882;12.530;2023-06-10T03:20:15;100706.03;;;20.70;100.00
54948;BME280;41113;41.882;12.530;2023-06-10T03:22:42;100708.38;;;20.79;100.00
54948;BME280;41113;41.882;12.530;2023-06-10T03:25:08;100716.22;;;20.83;100.00
54948;BME280;41113;41.882;12.530;2023-06-10T03:27:39;100723.22;;;21.05;99.82
54948;BME280;41113;41.882;12.530;2023-06-10T03:30:05;100716.78;;;21.19;97.89
54948;BME280;41113;41.882;12.530;2023-06-10T03:32:31;100720.63;;;21.31;97.00
54948;BME280;41113;41.882;12.530;2023-06-10T03:34:56;100709.91;;;21.36;95.91
54948;BME280;41113;41.882;12.530;2023-06-10T03:37:21;100713.28;;;21.45;95.04
54948;BME280;41113;41.882;12.530;2023-06-10T03:39:47;100717.03;;;21.24;95.71
54948;BME280;41113;41.882;12.530;2023-06-10T03:42:12;100710.38;;;20.99;97.73
54948;BME280;41113;41.882;12.530;2023-06-10T03:44:37;100712.88;;;20.94;98.56
54948;BME280;41113;41.882;12.530;2023-06-10T03:47:03;100711.41;;;20.91;98.45
54948;BME280;41113;41.882;12.530;2023-06-10T03:49:28;100709.31;;;20.93;95.81
54948;BME280;41113;41.882;12.530;2023-06-10T03:51:54;100706.59;;;20.93;95.37
54948;BME280;41113;41.882;12.530;2023-06-10T03:54:20;100708.88;;;20.90;94.82
54948;BME280;41113;41.882;12.530;2023-06-10T03:56:45;100708.00;;;20.83;94.17
54948;BME280;41113;41.882;12.530;2023-06-10T03:59:13;100702.69;;;20.74;94.78
54948;BME280;41113;41.882;12.530;2023-06-10T04:01:38;100701.50;;;20.84;94.40
54948;BME280;41113;41.882;12.530;2023-06-10T04:04:06;100699.97;;;20.74;94.97
54948;BME280;41113;41.882;12.530;2023-06-10T04:06:32;100699.56;;;20.77;95.39
54948;BME280;41113;41.882;12.530;2023-06-10T04:08:57;100711.28;;;20.71;96.20
54948;BME280;41113;41.882;12.530;2023-06-10T04:11:24;100710.03;;;20.67;96.57
54948;BME280;41113;41.882;12.530;2023-06-10T04:13:49;100713.84;;;20.79;95.29
54948;BME280;41113;41.882;12.530;2023-06-10T04:16:15;100716.88;;;20.91;95.55
54948;BME280;41113;41.882;12.530;2023-06-10T04:18:41;100717.25;;;20.81;97.44
54948;BME280;41113;41.882;12.530;2023-06-10T04:21:07;100713.84;;;20.79;97.60
54948;BME280;41113;41.882;12.530;2023-06-10T04:23:32;100700.19;;;20.79;99.11
54948;BME280;41113;41.882;12.530;2023-06-10T04:25:57;100700.22;;;21.27;97.95
54948;BME280;41113;41.882;12.530;2023-06-10T04:28:24;100701.19;;;22.07;90.76
54948;BME280;41113;41.882;12.530;2023-06-10T04:30:50;100701.56;;;21.71;91.11
54948;BME280;41113;41.882;12.530;2023-06-10T04:33:15;100702.31;;;21.25;94.08
54948;BME280;41113;41.882;12.530;2023-06-10T04:35:41;100704.28;;;20.97;96.65
54948;BME280;41113;41.882;12.530;2023-06-10T04:38:07;100692.91;;;20.87;98.10
54948;BME280;41113;41.882;12.530;2023-06-10T04:40:32;100689.16;;;20.94;98.18
54948;BME280;41113;41.882;12.530;2023-06-10T04:42:58;100700.09;;;21.01;96.63
54948;BME280;41113;41.882;12.530;2023-06-10T04:45:23;100698.03;;;21.09;95.71
54948;BME280;41113;41.882;12.530;2023-06-10T04:47:48;100699.47;;;21.05;94.87
54948;BME280;41113;41.882;12.530;2023-06-10T04:50:14;100698.13;;;20.81;95.74
54948;BME280;41113;41.882;12.530;2023-06-10T04:52:40;100701.63;;;20.69;96.61
54948;BME280;41113;41.882;12.530;2023-06-10T04:55:07;100698.47;;;20.65;96.84
54948;BME280;41113;41.882;12.530;2023-06-10T04:57:32;100695.31;;;20.68;96.40
54948;BME280;41113;41.882;12.530;2023-06-10T04:59:57;100693.81;;;20.59;96.17
54948;BME280;41113;41.882;12.530;2023-06-10T05:02:23;100691.47;;;20.49;96.42
54948;BME280;41113;41.882;12.530;2023-06-10T05:04:48;100694.00;;;20.51;96.86
54948;BME280;41113;41.882;12.530;2023-06-10T05:07:13;100695.25;;;20.55;96.57
54948;BME280;41113;41.882;12.530;2023-06-10T05:09:39;100690.28;;;20.65;96.34
54948;BME280;41113;41.882;12.530;2023-06-10T05:12:05;100699.09;;;20.67;96.95
54948;BME280;41113;41.882;12.530;2023-06-10T05:14:30;100698.69;;;20.70;96.32
54948;BME280;41113;41.882;12.530;2023-06-10T05:16:56;100697.00;;;20.69;96.10
54948;BME280;41113;41.882;12.530;2023-06-10T05:19:22;100697.09;;;20.48;95.25
54948;BME280;41113;41.882;12.530;2023-06-10T05:21:47;100702.88;;;20.38;94.82
54948;BME280;41113;41.882;12.530;2023-06-10T05:24:13;100698.25;;;20.39;94.91
54948;BME280;41113;41.882;12.530;2023-06-10T05:26:38;100698.94;;;20.41;94.13
54948;BME280;41113;41.882;12.530;2023-06-10T05:29:05;100705.28;;;20.48;94.70
54948;BME280;41113;41.882;12.530;2023-06-10T05:31:30;100701.63;;;20.69;94.06
54948;BME280;41113;41.882;12.530;2023-06-10T05:33:56;100697.75;;;20.91;92.63
54948;BME280;41113;41.882;12.530;2023-06-10T05:36:21;100694.38;;;20.89;92.32
54948;BME280;41113;41.882;12.530;2023-06-10T05:38:47;100695.06;;;21.04;91.23
54948;BME280;41113;41.882;12.530;2023-06-10T05:41:12;100698.84;;;21.03;90.10
54948;BME280;41113;41.882;12.530;2023-06-10T05:43:37;100686.25;;;21.09;88.73
54948;BME280;41113;41.882;12.530;2023-06-10T05:46:03;100693.00;;;21.13;88.96
54948;BME280;41113;41.882;12.530;2023-06-10T05:48:28;100697.31;;;21.35;87.94
54948;BME280;41113;41.882;12.530;2023-06-10T05:50:54;100700.31;;;21.67;86.48
54948;BME280;41113;41.882;12.530;2023-06-10T05:53:19;100707.03;;;21.58;85.59
54948;BME280;41113;41.882;12.530;2023-06-10T05:55:45;100693.56;;;21.63;85.13
54948;BME280;41113;41.882;12.530;2023-06-10T05:58:11;100703.66;;;21.69;84.24
54948;BME280;41113;41.882;12.530;2023-06-10T06:00:40;100710.81;;;21.57;84.81
54948;BME280;41113;41.882;12.530;2023-06-10T06:03:09;100703.63;;;21.42;85.26
54948;BME280;41113;41.882;12.530;2023-06-10T06:08:03;100714.03;;;24.37;72.92
54948;BME280;41113;41.882;12.530;2023-06-10T06:10:28;100707.19;;;27.19;66.88
54948;BME280;41113;41.882;12.530;2023-06-10T06:12:54;100700.34;;;28.46;60.67
54948;BME280;41113;41.882;12.530;2023-06-10T06:15:19;100708.25;;;29.41;53.84
54948;BME280;41113;41.882;12.530;2023-06-10T06:17:44;100702.28;;;30.09;49.81
54948;BME280;41113;41.882;12.530;2023-06-10T06:20:10;100697.09;;;30.59;54.20
54948;BME280;41113;41.882;12.530;2023-06-10T06:22:36;100690.06;;;31.77;50.17
54948;BME280;41113;41.882;12.530;2023-06-10T06:25:01;100689.22;;;31.76;50.41
54948;BME280;41113;41.882;12.530;2023-06-10T06:27:26;100701.56;;;30.60;51.80
54948;BME280;41113;41.882;12.530;2023-06-10T06:29:52;100691.97;;;29.72;54.26
54948;BME280;41113;41.882;12.530;2023-06-10T06:32:17;100692.69;;;28.31;57.63
54948;BME280;41113;41.882;12.530;2023-06-10T06:34:42;100701.66;;;26.09;58.08
54948;BME280;41113;41.882;12.530;2023-06-10T06:37:10;100704.75;;;25.59;61.99
54948;BME280;41113;41.882;12.530;2023-06-10T06:39:36;100711.13;;;25.11;63.42
54948;BME280;41113;41.882;12.530;2023-06-10T06:42:01;100707.81;;;24.66;65.13
54948;BME280;41113;41.882;12.530;2023-06-10T06:44:26;100705.91;;;24.85;65.59
54948;BME280;41113;41.882;12.530;2023-06-10T06:46:52;100704.13;;;25.57;63.24
54948;BME280;41113;41.882;12.530;2023-06-10T06:49:17;100706.03;;;25.45;60.98
54948;BME280;41113;41.882;12.530;2023-06-10T06:51:42;100711.69;;;25.32;62.53
54948;BME280;41113;41.882;12.530;2023-06-10T06:54:08;100715.03;;;25.34;62.45
54948;BME280;41113;41.882;12.530;2023-06-10T06:56:33;100717.00;;;25.45;62.88
54948;BME280;41113;41.882;12.530;2023-06-10T06:58:58;100710.69;;;25.44;62.26
54948;BME280;41113;41.882;12.530;2023-06-10T07:01:24;100708.81;;;24.90;63.81
54948;BME280;41113;41.882;12.530;2023-06-10T07:03:49;100710.81;;;25.01;63.81
54948;BME280;41113;41.882;12.530;2023-06-10T07:06:14;100710.78;;;25.38;62.67
54948;BME280;41113;41.882;12.530;2023-06-10T07:08:40;100710.84;;;25.61;61.93
54948;BME280;41113;41.882;12.530;2023-06-10T07:11:05;100707.47;;;25.89;61.20
54948;BME280;41113;41.882;12.530;2023-06-10T07:13:31;100719.25;;;26.20;60.31
54948;BME280;41113;41.882;12.530;2023-06-10T07:15:57;100717.09;;;26.22;60.02
54948;BME280;41113;41.882;12.530;2023-06-10T07:18:23;100712.25;;;25.70;60.90
54948;BME280;41113;41.882;12.530;2023-06-10T07:20:48;100719.25;;;25.66;61.59
54948;BME280;41113;41.882;12.530;2023-06-10T07:23:13;100721.94;;;25.25;62.55
54948;BME280;41113;41.882;12.530;2023-06-10T07:25:41;100720.53;;;25.34;61.87
54948;BME280;41113;41.882;12.530;2023-06-10T07:28:06;100728.69;;;25.10;63.30
54948;BME280;41113;41.882;12.530;2023-06-10T07:30:32;100721.94;;;25.25;62.97
54948;BME280;41113;41.882;12.530;2023-06-10T07:32:58;100731.28;;;25.54;62.21
54948;BME280;41113;41.882;12.530;2023-06-10T07:35:23;100729.38;;;25.96;61.08
54948;BME280;41113;41.882;12.530;2023-06-10T07:37:48;100734.16;;;26.42;59.92
54948;BME280;41113;41.882;12.530;2023-06-10T07:40:14;100732.28;;;26.94;58.47
54948;BME280;41113;41.882;12.530;2023-06-10T07:42:39;100735.13;;;27.23;57.83
54948;BME280;41113;41.882;12.530;2023-06-10T07:45:05;100730.34;;;27.47;57.44
54948;BME280;41113;41.882;12.530;2023-06-10T07:47:33;100728.53;;;27.81;56.15
54948;BME280;41113;41.882;12.530;2023-06-10T07:49:58;100736.00;;;27.12;56.84
54948;BME280;41113;41.882;12.530;2023-06-10T07:52:24;100731.56;;;27.11;58.11
54948;BME280;41113;41.882;12.530;2023-06-10T07:54:51;100731.69;;;27.44;57.50
54948;BME280;41113;41.882;12.530;2023-06-10T07:57:16;100732.56;;;27.90;56.34
54948;BME280;41113;41.882;12.530;2023-06-10T07:59:41;100724.78;;;28.20;55.43
54948;BME280;41113;41.882;12.530;2023-06-10T08:02:09;100725.28;;;28.51;54.37
54948;BME280;41113;41.882;12.530;2023-06-10T08:04:34;100729.66;;;28.13;55.03
54948;BME280;41113;41.882;12.530;2023-06-10T08:07:00;100719.63;;;28.24;54.87
54948;BME280;41113;41.882;12.530;2023-06-10T08:09:26;100726.09;;;28.68;53.84
54948;BME280;41113;41.882;12.530;2023-06-10T08:11:51;100730.78;;;28.85;53.30
54948;BME280;41113;41.882;12.530;2023-06-10T08:14:16;100727.97;;;28.46;52.62
54948;BME280;41113;41.882;12.530;2023-06-10T08:16:43;100726.25;;;28.62;53.08
54948;BME280;41113;41.882;12.530;2023-06-10T08:19:08;100725.53;;;29.05;51.79
54948;BME280;41113;41.882;12.530;2023-06-10T08:21:34;100729.44;;;29.31;51.01
54948;BME280;41113;41.882;12.530;2023-06-10T08:24:02;100721.22;;;28.75;51.38
54948;BME280;41113;41.882;12.530;2023-06-10T08:26:27;100724.25;;;28.57;51.15
54948;BME280;41113;41.882;12.530;2023-06-10T08:28:53;100731.25;;;28.81;50.93
54948;BME280;41113;41.882;12.530;2023-06-10T08:31:22;100724.31;;;28.96;50.71
54948;BME280;41113;41.882;12.530;2023-06-10T08:33:47;100728.59;;;29.30;50.13
54948;BME280;41113;41.882;12.530;2023-06-10T08:36:13;100720.59;;;29.56;49.55
54948;BME280;41113;41.882;12.530;2023-06-10T08:38:38;100719.66;;;29.72;48.23
54948;BME280;41113;41.882;12.530;2023-06-10T08:41:05;100725.09;;;29.62;48.75
54948;BME280;41113;41.882;12.530;2023-06-10T08:43:37;100718.88;;;29.28;45.94
54948;BME280;41113;41.882;12.530;2023-06-10T08:46:05;100727.06;;;28.96;47.09
54948;BME280;41113;41.882;12.530;2023-06-10T08:48:34;100722.44;;;28.63;49.09
54948;BME280;41113;41.882;12.530;2023-06-10T08:51:03;100716.34;;;28.82;48.18
54948;BME280;41113;41.882;12.530;2023-06-10T08:53:31;100722.56;;;28.73;46.72
54948;BME280;41113;41.882;12.530;2023-06-10T08:56:00;100714.94;;;28.25;45.97
54948;BME280;41113;41.882;12.530;2023-06-10T08:58:28;100715.63;;;28.32;48.10
54948;BME280;41113;41.882;12.530;2023-06-10T09:00:54;100712.66;;;28.21;48.13
54948;BME280;41113;41.882;12.530;2023-06-10T09:03:20;100723.13;;;28.03;48.86
54948;BME280;41113;41.882;12.530;2023-06-10T09:05:46;100725.69;;;27.93;48.73
54948;BME280;41113;41.882;12.530;2023-06-10T09:08:14;100720.47;;;28.25;48.03
54948;BME280;41113;41.882;12.530;2023-06-10T09:10:40;100730.41;;;28.42;47.02
54948;BME280;41113;41.882;12.530;2023-06-10T09:13:06;100725.63;;;28.55;46.55
54948;BME280;41113;41.882;12.530;2023-06-10T09:15:32;100730.66;;;28.41;46.56
54948;BME280;41113;41.882;12.530;2023-06-10T09:17:59;100727.84;;;28.36;46.27
54948;BME280;41113;41.882;12.530;2023-06-10T09:20:26;100731.72;;;28.57;45.92
54948;BME280;41113;41.882;12.530;2023-06-10T09:22:51;100720.78;;;28.45;43.57
54948;BME280;41113;41.882;12.530;2023-06-10T09:25:17;100717.28;;;28.33;42.83
54948;BME280;41113;41.882;12.530;2023-06-10T09:27:47;100716.78;;;28.36;43.24
54948;BME280;41113;41.882;12.530;2023-06-10T09:30:33;100715.91;;;28.52;42.53
54948;BME280;41113;41.882;12.530;2023-06-10T09:33:01;100719.91;;;28.61;44.32
54948;BME280;41113;41.882;12.530;2023-06-10T09:35:29;100716.50;;;28.54;44.51
54948;BME280;41113;41.882;12.530;2023-06-10T09:37:59;100720.06;;;28.71;44.39
54948;BME280;41113;41.882;12.530;2023-06-10T09:40:25;100703.69;;;28.87;44.50
54948;BME280;41113;41.882;12.530;2023-06-10T09:42:56;100704.94;;;28.96;44.18
54948;BME280;41113;41.882;12.530;2023-06-10T09:45:23;100700.09;;;29.08;44.54
54948;BME280;41113;41.882;12.530;2023-06-10T09:47:52;100698.88;;;29.21;42.88
54948;BME280;41113;41.882;12.530;2023-06-10T09:50:19;100703.63;;;29.25;44.13
54948;BME280;41113;41.882;12.530;2023-06-10T09:52:45;100697.38;;;29.35;44.42
54948;BME280;41113;41.882;12.530;2023-06-10T09:55:11;100697.13;;;29.36;44.42
54948;BME280;41113;41.882;12.530;2023-06-10T09:57:36;100691.06;;;29.39;44.50
54948;BME280;41113;41.882;12.530;2023-06-10T10:00:06;100680.56;;;29.41;44.06
54948;BME280;41113;41.882;12.530;2023-06-10T10:02:36;100680.38;;;29.48;44.24
54948;BME280;41113;41.882;12.530;2023-06-10T10:05:08;100682.16;;;29.59;44.44
54948;BME280;41113;41.882;12.530;2023-06-10T10:07:34;100683.50;;;29.57;43.61
54948;BME280;41113;41.882;12.530;2023-06-10T10:09:59;100674.75;;;29.65;43.89
54948;BME280;41113;41.882;12.530;2023-06-10T10:12:25;100677.91;;;29.52;43.91
54948;BME280;41113;41.882;12.530;2023-06-10T10:14:51;100677.78;;;29.41;43.97
54948;BME280;41113;41.882;12.530;2023-06-10T10:17:19;100684.41;;;29.13;44.24
54948;BME280;41113;41.882;12.530;2023-06-10T10:19:53;100671.97;;;28.72;44.13
54948;BME280;41113;41.882;12.530;2023-06-10T10:22:27;100670.22;;;28.44;45.10
54948;BME280;41113;41.882;12.530;2023-06-10T10:25:02;100678.09;;;28.36;44.41
54948;BME280;41113;41.882;12.530;2023-06-10T10:27:31;100664.53;;;28.17;45.94
54948;BME280;41113;41.882;12.530;2023-06-10T10:29:59;100674.91;;;28.10;46.06
54948;BME280;41113;41.882;12.530;2023-06-10T10:35:21;100667.56;;;28.71;45.39
54948;BME280;41113;41.882;12.530;2023-06-10T10:37:52;100662.53;;;28.90;45.20
54948;BME280;41113;41.882;12.530;2023-06-10T10:40:19;100660.47;;;28.80;45.69
54948;BME280;41113;41.882;12.530;2023-06-10T10:42:47;100662.69;;;28.62;46.32
54948;BME280;41113;41.882;12.530;2023-06-10T10:45:13;100658.22;;;28.77;46.31
54948;BME280;41113;41.882;12.530;2023-06-10T10:47:39;100661.97;;;28.88;46.03
54948;BME280;41113;41.882;12.530;2023-06-10T10:50:16;100660.94;;;28.72;45.87
54948;BME280;41113;41.882;12.530;2023-06-10T10:53:03;100653.44;;;28.51;45.89
54948;BME280;41113;41.882;12.530;2023-06-10T10:55:28;100646.25;;;28.50;46.87
54948;BME280;41113;41.882;12.530;2023-06-10T10:57:57;100650.75;;;28.56;46.58
54948;BME280;41113;41.882;12.530;2023-06-10T11:00:44;100643.81;;;28.75;45.57
54948;BME280;41113;41.882;12.530;2023-06-10T11:03:13;100643.59;;;28.99;45.45
54948;BME280;41113;41.882;12.530;2023-06-10T11:08:07;100629.59;;;29.10;45.43
54948;BME280;41113;41.882;12.530;2023-06-10T11:10:51;100637.53;;;29.02;45.11
54948;BME280;41113;41.882;12.530;2023-06-10T11:13:21;100623.25;;;29.10;45.52
54948;BME280;41113;41.882;12.530;2023-06-10T11:15:48;100627.00;;;28.99;45.52
54948;BME280;41113;41.882;12.530;2023-06-10T11:18:27;100615.53;;;29.12;45.65
54948;BME280;41113;41.882;12.530;2023-06-10T11:20:58;100620.31;;;29.22;44.99
54948;BME280;41113;41.882;12.530;2023-06-10T11:31:24;100607.69;;;29.04;45.25
54948;BME280;41113;41.882;12.530;2023-06-10T11:34:24;100602.09;;;28.77;45.63
54948;BME280;41113;41.882;12.530;2023-06-10T11:36:52;100595.78;;;28.60;46.11
54948;BME280;41113;41.882;12.530;2023-06-10T11:39:19;100588.53;;;28.75;45.78
54948;BME280;41113;41.882;12.530;2023-06-10T11:41:48;100599.13;;;28.83;45.77
54948;BME280;41113;41.882;12.530;2023-06-10T11:44:15;100588.16;;;28.89;46.08
54948;BME280;41113;41.882;12.530;2023-06-10T11:46:41;100592.59;;;28.90;46.10
54948;BME280;41113;41.882;12.530;2023-06-10T11:49:11;100581.47;;;28.85;46.44
54948;BME280;41113;41.882;12.530;2023-06-10T11:51:38;100593.97;;;28.65;47.17
54948;BME280;41113;41.882;12.530;2023-06-10T11:54:23;100584.44;;;28.56;47.65
54948;BME280;41113;41.882;12.530;2023-06-10T12:06:54;100582.63;;;29.16;45.55
54948;BME280;41113;41.882;12.530;2023-06-10T12:16:27;100568.47;;;29.07;46.45
54948;BME280;41113;41.882;12.530;2023-06-10T12:19:28;100571.56;;;29.16;45.09
54948;BME280;41113;41.882;12.530;2023-06-10T12:30:27;100562.31;;;29.00;46.01
54948;BME280;41113;41.882;12.530;2023-06-10T12:32:54;100559.81;;;28.98;44.39
54948;BME280;41113;41.882;12.530;2023-06-10T12:35:29;100553.47;;;29.03;44.60
54948;BME280;41113;41.882;12.530;2023-06-10T12:38:09;100544.63;;;29.01;45.80
54948;BME280;41113;41.882;12.530;2023-06-10T12:41:22;100546.59;;;28.83;44.70
54948;BME280;41113;41.882;12.530;2023-06-10T13:07:53;100520.34;;;28.59;44.77
54948;BME280;41113;41.882;12.530;2023-06-10T13:40:41;100487.66;;;28.51;47.17
54948;BME280;41113;41.882;12.530;2023-06-10T13:43:06;100479.91;;;28.48;47.41
54948;BME280;41113;41.882;12.530;2023-06-10T13:45:32;100484.00;;;28.45;47.61
54948;BME280;41113;41.882;12.530;2023-06-10T13:47:57;100481.19;;;28.40;47.80
54948;BME280;41113;41.882;12.530;2023-06-10T13:50:22;100480.38;;;28.40;48.11
54948;BME280;41113;41.882;12.530;2023-06-10T13:52:48;100483.66;;;28.37;48.40
54948;BME280;41113;41.882;12.530;2023-06-10T13:55:14;100483.06;;;28.35;48.67
54948;BME280;41113;41.882;12.530;2023-06-10T13:57:40;100484.75;;;28.36;48.59
54948;BME280;41113;41.882;12.530;2023-06-10T14:00:06;100489.75;;;28.39;48.78
54948;BME280;41113;41.882;12.530;2023-06-10T14:05:50;100489.59;;;28.29;48.54
54948;BME280;41113;41.882;12.530;2023-06-10T14:08:16;100485.78;;;28.30;48.97
54948;BME280;41113;41.882;12.530;2023-06-10T14:10:42;100488.94;;;28.21;49.46
54948;BME280;41113;41.882;12.530;2023-06-10T14:13:08;100485.59;;;28.19;49.53
54948;BME280;41113;41.882;12.530;2023-06-10T14:15:33;100486.75;;;28.24;49.40
54948;BME280;41113;41.882;12.530;2023-06-10T14:18:00;100485.59;;;28.19;49.58
54948;BME280;41113;41.882;12.530;2023-06-10T14:20:25;100484.97;;;28.12;49.50
54948;BME280;41113;41.882;12.530;2023-06-10T14:22:51;100482.78;;;28.14;49.66
54948;BME280;41113;41.882;12.530;2023-06-10T14:25:17;100486.13;;;28.16;49.58
54948;BME280;41113;41.882;12.530;2023-06-10T14:27:42;100494.84;;;28.08;50.08
54948;BME280;41113;41.882;12.530;2023-06-10T14:30:08;100494.53;;;28.05;50.50
54948;BME280;41113;41.882;12.530;2023-06-10T14:32:33;100499.81;;;28.06;50.69